• Join FlightAware (Why Join?)
  • Login
  • US Flag 
03:28AM EDT


 

Airport Tracker/Info


-or-


 

Live Flight TrackerFlight Track Log ✈ CTL16 ✈ 12-Apr-2013 ✈ KBKL - KHAO

Flight Track Log - Related Links

Times and Time Zones

All times are in EDT time to prevent confusion due to time zone crossing. See the CTL16 flight status page for this flight to view local times or setup timezone preferences in your user account.

Time Position Orientation Groundspeed Altitude Reporting Facility
EDT Latitude Longitude Course Direction KTS MPH feet Rate Location/Type
09:40PM 41.5208 -81.7175 288° West 150 173 1,400  Level Cleveland Center
09:41PM 41.5664 -81.7347 344° North 154 177 3,000 660 Climbing Cleveland Center
09:43PM 41.6036 -81.7661 328° Northwest 165 190 3,000  Level Cleveland Center
09:44PM 41.5989 -81.8186 263° West 145 167 3,100 480 Climbing Cleveland Center
09:45PM 41.5861 -81.8572 246° West 116 133 4,000 420 Climbing Cleveland Center
09:46PM 41.5606 -81.8958 229° Southwest 145 167 4,000  Level Cleveland Center
09:47PM 41.5392 -81.9397 237° Southwest 138 159 4,000 -60 Level Cleveland Center
09:48PM 41.5158 -81.9836 235° Southwest 141 162 3,900  Descending Cleveland Center
09:49PM 41.4922 -82.0219 231° Southwest 138 159 4,000  Climbing Cleveland Center
09:50PM 41.4753 -82.0603 239° Southwest 139 160 3,900 -60 Descending Cleveland Center
09:50PM 41.4517 -82.0958 228° Southwest 138 159 3,900  Level Cleveland Center
09:52PM 41.4197 -82.1422 227° Southwest 148 170 4,000  Climbing Cleveland Center
09:53PM 41.3986 -82.1719 227° Southwest 139 160 4,000  Level Cleveland Center
09:54PM 41.3647 -82.2100 220° Southwest 140 161 4,000  Level Cleveland Center
09:55PM 41.3392 -82.2397 221° Southwest 139 160 4,000  Level Cleveland Center
09:57PM 41.2789 -82.3013 218° Southwest  Level FlightAware Approximate
10:04PM 41.0656 -82.5223 219° Southwest  Level FlightAware Approximate
10:05PM 41.0357 -82.5548 219° Southwest  Level FlightAware Approximate
10:06PM 41.0058 -82.5872 219° Southwest  Level FlightAware Approximate
10:07PM 40.9759 -82.6196 219° Southwest  Level FlightAware Approximate
10:08PM 40.9460 -82.6520 219° Southwest  Level FlightAware Approximate
10:09PM 40.9161 -82.6843 219° Southwest  Level FlightAware Approximate
10:10PM 40.8862 -82.7166 219° Southwest  Level FlightAware Approximate
10:11PM 40.8563 -82.7489 219° Southwest  Level FlightAware Approximate
10:12PM 40.8263 -82.7811 219° Southwest  Level FlightAware Approximate
10:13PM 40.7964 -82.8134 219° Southwest  Level FlightAware Approximate
10:14PM 40.7664 -82.8456 219° Southwest  Level FlightAware Approximate
10:15PM 40.7365 -82.8777 219° Southwest  Level FlightAware Approximate
10:15PM 40.7472 -82.9481 219° Southwest 144 166 4,100  Level Indianapolis Center
10:16PM 40.7065 -82.9098 219° Southwest  Level FlightAware Approximate
10:16PM 40.7175 -82.9853 224° Southwest 146 168 4,100  Level Indianapolis Center
10:17PM 40.6765 -82.9419 219° Southwest  Level FlightAware Approximate
10:17PM 40.6850 -83.0172 217° Southwest 145 167 4,100  Level Indianapolis Center
10:18PM 40.6465 -82.9740 219° Southwest  Level FlightAware Approximate
10:18PM 40.6511 -83.0467 213° Southwest 145 167 4,200  Level Indianapolis Center
10:19PM 40.6166 -83.0061 219° Southwest  Level FlightAware Approximate
10:19PM 40.6197 -83.0822 221° Southwest 148 170 4,100  Level Indianapolis Center
10:20PM 40.5866 -83.0381 219° Southwest  Level FlightAware Approximate
10:20PM 40.5850 -83.1242 223° Southwest 145 167 4,200  Level Indianapolis Center
10:21PM 40.5542 -83.1594 221° Southwest 146 168 4,000 -120 Descending Indianapolis Center
10:22PM 40.5278 -83.1928 224° Southwest 144 166 4,000  Level Indianapolis Center
10:23PM 40.4972 -83.2300 223° Southwest 146 168 4,100  Climbing Indianapolis Center
10:24PM 40.4681 -83.2650 222° Southwest 144 166 4,100  Level Indianapolis Center
10:25PM 40.4361 -83.3022 222° Southwest 145 167 4,100  Level Indianapolis Center
10:26PM 40.4042 -83.3369 220° Southwest 146 168 4,100  Level Indianapolis Center
10:27PM 40.3700 -83.3764 221° Southwest 147 169 4,100  Level Indianapolis Center
10:28PM 40.3428 -83.4086 222° Southwest 149 171 4,100 -60 Level Indianapolis Center
10:29PM 40.3128 -83.4461 224° Southwest 148 170 4,000 -60 Descending Indianapolis Center
10:30PM 40.2808 -83.4833 222° Southwest 148 170 4,000  Level Indianapolis Center
10:31PM 40.2489 -83.5175 219° Southwest 148 170 4,100  Climbing Indianapolis Center
10:32PM 40.2167 -83.5600 225° Southwest 148 170 4,000  Descending Indianapolis Center
10:33PM 40.1903 -83.5906 221° Southwest 147 169 4,100  Climbing Indianapolis Center
10:34PM 40.1567 -83.6344 225° Southwest 146 168 4,000  Descending Indianapolis Center
10:35PM 40.1311 -83.6667 224° Southwest 146 168 4,100  Climbing Indianapolis Center
10:36PM 40.1036 -83.6989 222° Southwest 145 167 4,100  Level Indianapolis Center
10:36PM 40.0983 -83.7078 232° Southwest 145 167 4,100 -120 Level Indianapolis Center
10:37PM 40.0778 -83.7392 229° Southwest 142 163 4,000  Descending Indianapolis Center
10:37PM 40.0711 -83.7467 221° Southwest 145 167 4,100  Climbing Indianapolis Center
10:38PM 40.0503 -83.7711 222° Southwest 147 169 4,000 -120 Descending Indianapolis Center
10:38PM 40.0406 -83.7825 222° Southwest 146 168 4,000  Level Indianapolis Center
10:39PM 40.0089 -83.8178 220° Southwest 148 170 4,000  Level Indianapolis Center
10:40PM 39.9789 -83.8547 223° Southwest 148 170 4,000  Level Indianapolis Center
10:41PM 39.9469 -83.8914 221° Southwest 154 177 4,000  Level Indianapolis Center
10:42PM 39.9167 -83.9283 223° Southwest 147 169 4,100  Climbing Indianapolis Center
10:43PM 39.8914 -83.9578 222° Southwest 150 173 4,000 -120 Descending Indianapolis Center
10:43PM 39.8847 -83.9636 214° Southwest 149 171 4,000  Level Indianapolis Center
10:44PM 39.8519 -83.9992 220° Southwest 150 173 4,000  Level Indianapolis Center
10:45PM 39.8275 -84.0283 223° Southwest 150 173 4,100 60 Climbing Indianapolis Center
10:45PM 39.8211 -84.0369 226° Southwest 151 174 4,100 -120 Level Indianapolis Center
10:46PM 39.7906 -84.0697 220° Southwest 164 189 4,000 -60 Descending Indianapolis Center
10:47PM 39.7561 -84.1086 221° Southwest 164 189 4,000  Level Indianapolis Center
10:48PM 39.7175 -84.1531 222° Southwest 163 188 4,100  Climbing Indianapolis Center
10:49PM 39.6828 -84.1911 220° Southwest 163 188 4,100 -60 Level Indianapolis Center
10:51PM 39.6483 -84.2286 220° Southwest 161 185 4,000 -120 Descending Indianapolis Center
10:52PM 39.6104 -84.2554 209° Southwest  Level FlightAware Approximate
10:59PM 39.3881 -84.4619 218° Southwest  Level FlightAware Approximate
11:00PM 39.3616 -84.4992 229° Southwest  Level FlightAware Approximate
11:01PM 39.3500 -84.5167 229° Southwest  Level FlightAware Approximate
11:02PM 39.3638 -84.5219 229° Southwest  Level Estimated
11:03PM 39.3638 -84.5219 229° Southwest  Level Estimated
11:04PM 39.3638 -84.5219 229° Southwest  Level Estimated
11:05PM 39.3638 -84.5219 229° Southwest  Level Estimated
11:06PM 39.3638 -84.5219 229° Southwest  Level Estimated
11:07PM 39.3638 -84.5219 229° Southwest  Level Estimated
11:08PM 39.3638 -84.5219 229° Southwest  Level Estimated
11:09PM 39.3638 -84.5219 229° Southwest  Level Estimated